Time;durP1;ratioP1;P1;durP2;ratioP2;P2;SDS_P1;SDS_P2;PMS_P1;PMS_P2;Temp;Humidity;BMP_temperature;BMP_pressure;BME280_temperature;BME280_humidity;BME280_pressure;Samples;Min_cycle;Max_cycle;Signal;HPM_P1;HPM_P2
2023/07/06 00:00:51;;;;;;;4.10;3.63;;;28.40;58.30;;;;;;5014678;28;20072;-73
2023/07/06 00:03:17;;;;;;;4.43;3.92;;;28.40;58.30;;;;;;5013773;28;20022;-74
2023/07/06 00:05:46;;;;;;;4.32;3.83;;;28.40;58.30;;;;;;5012631;28;20495;-74
2023/07/06 00:08:13;;;;;;;4.40;4.00;;;28.40;58.30;;;;;;5014386;28;20029;-74
2023/07/06 00:10:41;;;;;;;3.83;3.42;;;28.40;58.30;;;;;;5014932;28;20167;-74
2023/07/06 00:13:07;;;;;;;3.80;3.45;;;28.40;58.40;;;;;;5014802;28;20075;-75
2023/07/06 00:15:34;;;;;;;4.00;3.60;;;28.40;58.40;;;;;;5014193;28;20028;-74
2023/07/06 00:18:03;;;;;;;4.25;3.85;;;28.40;58.40;;;;;;5014546;28;20057;-74
2023/07/06 00:20:29;;;;;;;4.28;3.70;;;28.40;58.40;;;;;;5013175;28;20026;-74
2023/07/06 00:22:55;;;;;;;3.92;3.53;;;28.40;58.40;;;;;;5013045;28;20440;-74
2023/07/06 00:25:21;;;;;;;4.18;3.78;;;28.30;58.20;;;;;;5012598;28;20026;-74
2023/07/06 00:27:48;;;;;;;4.22;3.70;;;28.30;58.20;;;;;;5014457;28;20053;-74
2023/07/06 00:30:20;;;;;;;3.85;3.45;;;28.30;58.20;;;;;;5012926;28;20465;-74
2023/07/06 00:32:48;;;;;;;4.45;3.65;;;28.30;58.20;;;;;;5012871;28;20084;-74
2023/07/06 00:35:15;;;;;;;4.22;3.83;;;28.30;58.20;;;;;;5014165;28;20057;-74
2023/07/06 00:37:41;;;;;;;4.82;3.50;;;28.30;58.20;;;;;;5012884;28;20037;-74
2023/07/06 00:40:13;;;;;;;4.00;3.60;;;28.30;58.20;;;;;;5014138;28;20029;-74
2023/07/06 00:42:39;;;;;;;4.55;4.07;;;28.30;58.30;;;;;;5014228;28;20127;-75
2023/07/06 00:45:09;;;;;;;4.00;3.60;;;28.30;58.30;;;;;;5013605;28;20062;-75
2023/07/06 00:47:37;;;;;;;3.97;3.47;;;28.20;58.30;;;;;;4996289;28;20129;-74
2023/07/06 00:50:13;;;;;;;4.00;3.60;;;28.20;58.40;;;;;;5013715;28;20040;-74
2023/07/06 00:52:48;;;;;;;4.40;3.88;;;28.20;58.40;;;;;;5013791;28;20068;-73
2023/07/06 00:55:15;;;;;;;4.20;3.80;;;28.20;58.50;;;;;;5012222;28;20033;-74
2023/07/06 00:57:42;;;;;;;4.03;3.63;;;28.20;58.50;;;;;;5013250;28;20037;-74
2023/07/06 01:00:11;;;;;;;4.25;3.60;;;28.20;58.40;;;;;;5013234;28;20030;-74
2023/07/06 01:02:40;;;;;;;3.85;3.55;;;28.20;58.50;;;;;;5014125;28;20025;-74
2023/07/06 01:05:10;;;;;;;4.90;4.07;;;28.20;58.50;;;;;;5014049;28;20026;-74
2023/07/06 01:07:39;;;;;;;4.38;3.58;;;28.10;58.40;;;;;;5013643;28;20030;-74
2023/07/06 01:10:05;;;;;;;4.95;4.03;;;28.10;58.40;;;;;;5011898;28;20064;-75
2023/07/06 01:12:31;;;;;;;4.47;4.00;;;28.10;58.40;;;;;;5013605;28;20030;-74
2023/07/06 01:14:57;;;;;;;3.90;3.50;;;28.10;58.40;;;;;;5013457;28;20416;-74
2023/07/06 01:17:30;;;;;;;4.30;3.90;;;28.10;58.40;;;;;;5017578;28;20026;-74
2023/07/06 01:20:27;;;;;;;4.60;3.40;;;28.10;58.50;;;;;;5017427;28;20036;-74
2023/07/06 01:22:55;;;;;;;4.20;3.80;;;28.10;58.60;;;;;;5017153;28;20026;-74
2023/07/06 01:25:57;;;;;;;3.50;3.20;;;28.10;59.00;;;;;;5015814;28;20033;-75
2023/07/06 01:28:53;;;;;;;4.10;3.70;;;28.10;58.70;;;;;;5016938;28;20104;-75
2023/07/06 01:31:51;;;;;;;3.85;3.45;;;28.10;58.50;;;;;;5007356;28;20034;-74
2023/07/06 01:34:25;;;;;;;3.95;3.55;;;28.10;58.80;;;;;;5015894;28;20034;-74
2023/07/06 01:37:06;;;;;;;4.20;3.80;;;28.10;58.50;;;;;;5017201;28;20034;-74
2023/07/06 01:39:32;;;;;;;3.83;3.42;;;28.00;58.50;;;;;;5017332;28;20053;-74
2023/07/06 01:42:09;;;;;;;4.65;4.15;;;28.00;58.50;;;;;;5016817;28;20060;-74
2023/07/06 01:44:37;;;;;;;4.35;3.90;;;28.00;58.60;;;;;;5016761;28;20376;-74
2023/07/06 01:47:03;;;;;;;4.30;3.90;;;28.00;58.60;;;;;;5015448;28;20103;-74
2023/07/06 01:49:30;;;;;;;5.30;4.20;;;28.00;58.70;;;;;;5015338;28;20416;-74
2023/07/06 01:52:27;;;;;;;4.45;4.05;;;28.00;58.70;;;;;;5015256;28;20034;-75
2023/07/06 01:55:20;;;;;;;4.40;4.00;;;28.00;58.90;;;;;;5016561;28;20037;-75
2023/07/06 01:57:52;;;;;;;4.35;3.95;;;28.00;58.80;;;;;;5016406;28;20106;-75
2023/07/06 02:00:19;;;;;;;4.45;3.85;;;27.90;58.80;;;;;;5016434;28;20115;-73
2023/07/06 02:02:47;;;;;;;4.75;4.20;;;27.90;58.80;;;;;;5015083;28;20440;-74
2023/07/06 02:05:14;;;;;;;4.40;4.00;;;27.90;58.80;;;;;;5016317;28;20440;-75
2023/07/06 02:07:43;;;;;;;4.05;3.65;;;27.90;58.80;;;;;;5016001;28;20034;-75
2023/07/06 02:10:14;;;;;;;4.32;3.90;;;27.90;58.80;;;;;;5016015;28;20058;-74
2023/07/06 02:12:42;;;;;;;4.65;4.03;;;27.90;58.80;;;;;;5015947;28;20061;-74
2023/07/06 02:15:09;;;;;;;4.10;3.70;;;27.90;58.80;;;;;;5016106;28;20038;-74
2023/07/06 02:17:36;;;;;;;4.30;3.90;;;27.90;58.90;;;;;;5016162;28;20484;-74
2023/07/06 02:20:02;;;;;;;4.78;3.80;;;27.90;58.90;;;;;;5015938;28;20025;-73
2023/07/06 02:22:28;;;;;;;4.47;4.05;;;27.90;59.00;;;;;;5014866;28;20026;-74
2023/07/06 02:24:53;;;;;;;5.22;3.90;;;27.90;59.00;;;;;;5015778;28;20397;-74
2023/07/06 02:27:19;;;;;;;4.22;3.83;;;27.80;59.00;;;;;;5014937;28;20041;-74
2023/07/06 02:29:45;;;;;;;4.25;3.83;;;27.80;59.00;;;;;;5016339;28;20037;-74
2023/07/06 02:32:11;;;;;;;4.65;4.07;;;27.80;59.00;;;;;;5015753;28;20026;-74
2023/07/06 02:34:37;;;;;;;4.32;3.92;;;27.80;59.00;;;;;;5014112;28;20034;-72
2023/07/06 02:37:03;;;;;;;4.40;3.90;;;27.80;59.00;;;;;;5015955;28;20057;-74
2023/07/06 02:39:28;;;;;;;4.28;3.88;;;27.80;59.00;;;;;;5015752;28;20065;-74
2023/07/06 02:41:56;;;;;;;4.50;4.05;;;27.80;59.00;;;;;;5015400;28;20029;-73
2023/07/06 02:44:23;;;;;;;5.07;3.90;;;27.80;59.00;;;;;;5014191;28;20041;-73
2023/07/06 02:46:50;;;;;;;4.15;3.75;;;27.80;58.90;;;;;;5014719;28;20553;-74
2023/07/06 02:49:16;;;;;;;3.97;3.58;;;27.80;58.90;;;;;;5016049;28;20053;-74
2023/07/06 02:51:42;;;;;;;4.40;4.00;;;27.90;58.90;;;;;;5016054;28;20058;-74
2023/07/06 02:54:15;;;;;;;4.40;4.00;;;27.90;58.90;;;;;;5016053;28;20044;-74
2023/07/06 02:56:43;;;;;;;4.03;3.60;;;27.90;58.90;;;;;;5014707;28;20029;-74
2023/07/06 02:59:10;;;;;;;4.25;3.85;;;27.90;58.80;;;;;;5016221;28;20528;-75
2023/07/06 03:01:36;;;;;;;4.25;3.83;;;27.90;58.80;;;;;;5015812;28;20105;-75
2023/07/06 03:04:09;;;;;;;4.45;3.88;;;27.90;58.70;;;;;;5015609;28;20140;-76
2023/07/06 03:06:34;;;;;;;4.40;3.70;;;27.90;58.70;;;;;;5015204;28;20044;-74
2023/07/06 03:09:00;;;;;;;4.10;3.67;;;27.90;58.60;;;;;;5015082;28;20512;-74
2023/07/06 03:11:26;;;;;;;4.47;3.95;;;28.00;58.70;;;;;;5014493;28;20076;-75
2023/07/06 03:13:51;;;;;;;5.60;3.80;;;28.00;58.70;;;;;;5015369;28;20468;-75
2023/07/06 03:16:17;;;;;;;4.38;3.58;;;28.00;58.60;;;;;;5013546;28;20120;-75
2023/07/06 03:18:44;;;;;;;4.28;3.88;;;28.00;58.60;;;;;;5014709;28;20030;-75
2023/07/06 03:21:11;;;;;;;6.50;4.20;;;28.00;58.50;;;;;;5015064;28;20029;-74
2023/07/06 03:23:37;;;;;;;4.00;3.60;;;28.10;58.60;;;;;;5015100;28;20392;-74
2023/07/06 03:26:02;;;;;;;4.43;3.90;;;28.10;59.10;;;;;;5015550;28;20026;-74
2023/07/06 03:28:29;;;;;;;4.30;3.90;;;28.10;58.50;;;;;;5015052;28;20030;-74
2023/07/06 03:30:56;;;;;;;3.80;3.42;;;28.20;58.50;;;;;;5015272;28;20505;-74
2023/07/06 03:33:24;;;;;;;4.22;3.60;;;28.20;58.40;;;;;;5015076;28;20025;-74
2023/07/06 03:35:54;;;;;;;4.47;3.53;;;28.20;58.40;;;;;;5013928;28;20439;-74
2023/07/06 03:38:21;;;;;;;4.03;3.63;;;28.30;58.40;;;;;;5015415;28;20034;-74
2023/07/06 03:40:51;;;;;;;3.97;3.58;;;28.30;58.30;;;;;;5015099;28;20025;-75
2023/07/06 03:43:17;;;;;;;4.13;3.60;;;28.40;58.30;;;;;;5015115;28;20025;-74
2023/07/06 03:45:46;;;;;;;4.78;3.92;;;28.40;58.30;;;;;;5015108;28;20358;-74
2023/07/06 03:48:12;;;;;;;4.85;3.97;;;28.40;58.30;;;;;;5013512;28;20033;-74
2023/07/06 03:50:38;;;;;;;4.20;3.80;;;28.40;58.20;;;;;;5014709;28;20432;-75
2023/07/06 03:53:04;;;;;;;4.93;3.78;;;28.50;58.20;;;;;;5014692;28;20492;-74
2023/07/06 03:55:30;;;;;;;4.30;3.58;;;28.50;58.20;;;;;;5014808;28;20040;-74
2023/07/06 03:58:00;;;;;;;4.00;3.53;;;28.50;58.10;;;;;;5014601;28;20033;-74
2023/07/06 04:00:28;;;;;;;4.13;3.72;;;28.50;58.00;;;;;;5014750;28;20022;-74
2023/07/06 04:02:55;;;;;;;3.95;3.55;;;28.60;58.00;;;;;;5014505;28;20371;-74
2023/07/06 04:05:34;;;;;;;4.53;3.95;;;28.60;58.00;;;;;;5013422;28;20056;-74
2023/07/06 04:08:03;;;;;;;4.15;3.75;;;28.70;58.20;;;;;;5014914;28;20368;-75
2023/07/06 04:10:30;;;;;;;4.72;3.90;;;28.70;58.10;;;;;;5014589;28;20029;-74
2023/07/06 04:12:56;;;;;;;4.22;3.83;;;28.70;58.20;;;;;;5013355;28;20033;-74
2023/07/06 04:15:23;;;;;;;4.15;3.75;;;28.70;58.20;;;;;;5014430;28;20025;-75
2023/07/06 04:17:50;;;;;;;4.00;3.60;;;28.70;58.20;;;;;;5015025;28;20380;-74
2023/07/06 04:20:22;;;;;;;4.93;4.15;;;28.80;58.30;;;;;;5014307;28;20079;-74
2023/07/06 04:22:49;;;;;;;4.40;4.00;;;28.80;58.30;;;;;;5013215;28;20030;-75
2023/07/06 04:25:19;;;;;;;4.07;3.67;;;28.80;58.30;;;;;;5013079;28;20030;-75
2023/07/06 04:27:46;;;;;;;4.40;4.00;;;28.80;58.40;;;;;;5014093;28;20022;-74
2023/07/06 04:30:12;;;;;;;4.47;4.07;;;28.80;58.40;;;;;;5014086;28;20030;-75
2023/07/06 04:32:38;;;;;;;5.63;3.83;;;28.80;58.50;;;;;;5014840;28;20421;-74
2023/07/06 04:35:05;;;;;;;5.10;4.60;;;28.80;58.60;;;;;;5014416;28;20105;-75
2023/07/06 04:37:32;;;;;;;4.10;3.67;;;28.80;58.60;;;;;;5014004;28;20036;-74
2023/07/06 04:39:58;;;;;;;4.88;4.35;;;28.80;58.70;;;;;;5013814;28;20592;-74
2023/07/06 04:42:27;;;;;;;4.63;4.22;;;28.80;58.70;;;;;;5014046;28;20045;-75
2023/07/06 04:44:54;;;;;;;4.50;4.10;;;28.80;58.80;;;;;;5013747;28;20034;-74
2023/07/06 04:47:23;;;;;;;4.00;3.65;;;28.80;58.80;;;;;;5013993;28;20451;-74
2023/07/06 04:49:52;;;;;;;4.70;4.20;;;28.90;59.00;;;;;;5013777;28;20483;-75
2023/07/06 04:52:18;;;;;;;4.35;3.95;;;28.80;59.00;;;;;;5013798;28;20022;-74
2023/07/06 04:54:44;;;;;;;5.75;4.20;;;28.80;59.10;;;;;;5013666;28;20026;-75
2023/07/06 04:57:16;;;;;;;4.63;4.13;;;28.80;59.20;;;;;;5013547;28;20033;-74
2023/07/06 04:59:42;;;;;;;4.63;4.18;;;28.90;59.30;;;;;;5012661;28;20062;-75
2023/07/06 05:02:10;;;;;;;5.47;4.30;;;28.90;59.40;;;;;;5014229;28;20034;-75
2023/07/06 05:04:40;;;;;;;4.28;3.88;;;28.90;59.40;;;;;;5012172;28;20172;-74
2023/07/06 05:07:06;;;;;;;4.53;4.13;;;28.90;59.50;;;;;;5013465;28;20084;-74
2023/07/06 05:09:32;;;;;;;4.85;4.32;;;28.90;59.50;;;;;;5012210;28;20088;-75
2023/07/06 05:11:58;;;;;;;7.07;4.40;;;28.90;59.50;;;;;;5013674;28;20423;-75
2023/07/06 05:14:24;;;;;;;4.72;4.28;;;28.90;59.60;;;;;;5013481;28;20377;-75
2023/07/06 05:16:50;;;;;;;4.68;4.22;;;28.90;59.60;;;;;;5013469;28;20037;-74
2023/07/06 05:19:16;;;;;;;5.03;4.18;;;28.90;59.60;;;;;;5013421;28;20476;-75
2023/07/06 05:21:42;;;;;;;5.05;4.43;;;28.90;59.70;;;;;;5012128;28;20037;-75
2023/07/06 05:24:08;;;;;;;4.95;4.40;;;28.90;59.80;;;;;;5013177;28;20527;-74
2023/07/06 05:26:34;;;;;;;4.70;4.30;;;28.90;59.90;;;;;;5013554;28;20034;-74
2023/07/06 05:28:59;;;;;;;4.93;4.43;;;28.90;59.90;;;;;;5013498;28;20396;-74
2023/07/06 05:31:26;;;;;;;4.95;4.45;;;28.90;60.00;;;;;;5013255;28;20029;-75
2023/07/06 05:33:52;;;;;;;4.90;4.40;;;28.90;60.00;;;;;;5013220;28;20460;-74
2023/07/06 05:36:18;;;;;;;5.43;4.20;;;28.90;60.00;;;;;;5013201;28;20152;-74
2023/07/06 05:38:43;;;;;;;5.53;4.70;;;28.90;60.10;;;;;;5012803;28;20400;-74
2023/07/06 05:41:09;;;;;;;4.88;4.38;;;29.00;60.20;;;;;;5013164;28;20030;-75
2023/07/06 05:43:34;;;;;;;4.85;4.35;;;29.00;60.10;;;;;;5012934;28;20133;-74
2023/07/06 05:46:00;;;;;;;5.25;4.53;;;29.10;60.20;;;;;;5012731;28;20058;-75
2023/07/06 05:48:26;;;;;;;4.82;4.32;;;29.10;60.20;;;;;;5013577;28;20022;-75
2023/07/06 05:50:52;;;;;;;4.80;4.30;;;29.20;60.20;;;;;;5013358;28;20034;-75
2023/07/06 05:53:17;;;;;;;5.07;4.57;;;29.20;60.10;;;;;;5013072;28;20030;-74
2023/07/06 05:55:43;;;;;;;5.18;4.63;;;29.30;60.10;;;;;;5012868;28;20042;-75
2023/07/06 05:58:10;;;;;;;6.68;4.60;;;29.30;60.10;;;;;;5013496;28;20461;-74
2023/07/06 06:00:41;;;;;;;5.03;4.53;;;29.40;60.00;;;;;;5011753;28;20037;-74
2023/07/06 06:03:07;;;;;;;4.88;4.38;;;29.40;60.00;;;;;;5014809;28;20062;-74
2023/07/06 06:05:34;;;;;;;5.38;4.88;;;29.40;59.90;;;;;;5016494;28;20064;-74
2023/07/06 06:08:03;;;;;;;5.70;4.85;;;29.50;60.00;;;;;;5016608;28;20034;-75
2023/07/06 06:10:31;;;;;;;6.03;4.40;;;29.50;60.00;;;;;;5016648;28;20032;-74
2023/07/06 06:12:57;;;;;;;5.88;5.05;;;29.50;60.00;;;;;;5016806;28;20026;-74
2023/07/06 06:15:23;;;;;;;5.90;5.32;;;29.60;60.00;;;;;;5016668;28;20411;-74
2023/07/06 06:17:50;;;;;;;5.43;4.68;;;29.60;60.00;;;;;;5016562;28;20030;-75
2023/07/06 06:20:16;;;;;;;5.88;5.30;;;29.60;60.00;;;;;;5015084;28;20034;-74
2023/07/06 06:22:42;;;;;;;5.65;5.15;;;29.60;60.00;;;;;;5016113;28;20056;-75
2023/07/06 06:25:08;;;;;;;6.03;5.20;;;29.60;60.10;;;;;;5016315;28;20056;-74
2023/07/06 06:27:33;;;;;;;6.05;5.50;;;29.60;60.10;;;;;;5016511;28;20383;-75
2023/07/06 06:29:59;;;;;;;6.10;5.50;;;29.70;60.20;;;;;;5014738;28;20034;-75
2023/07/06 06:32:25;;;;;;;5.88;5.28;;;29.70;60.30;;;;;;5016464;28;20026;-75
2023/07/06 06:34:52;;;;;;;6.55;5.25;;;29.70;60.20;;;;;;5015104;28;20076;-75
2023/07/06 06:37:17;;;;;;;6.10;5.50;;;29.80;60.20;;;;;;5016428;28;20033;-75
2023/07/06 06:39:43;;;;;;;6.22;5.63;;;29.80;60.10;;;;;;5016536;28;20424;-75
2023/07/06 06:42:12;;;;;;;6.10;5.50;;;29.80;60.10;;;;;;5015998;28;20174;-74
2023/07/06 06:44:38;;;;;;;5.88;5.28;;;29.90;60.00;;;;;;5015914;28;20120;-74
2023/07/06 06:47:04;;;;;;;5.70;5.20;;;29.90;60.00;;;;;;5015946;28;20128;-75
2023/07/06 06:49:33;;;;;;;6.50;5.20;;;29.90;60.00;;;;;;5015895;28;20036;-74
2023/07/06 06:52:01;;;;;;;5.68;5.18;;;29.90;60.00;;;;;;5014752;28;20025;-74
2023/07/06 06:54:28;;;;;;;7.15;5.68;;;30.00;60.00;;;;;;5016434;28;20022;-74
2023/07/06 06:56:53;;;;;;;5.70;5.20;;;30.00;60.10;;;;;;5015956;28;20080;-74
2023/07/06 06:59:19;;;;;;;6.28;5.68;;;30.00;60.00;;;;;;5015726;28;20400;-74
2023/07/06 07:01:45;;;;;;;5.97;5.47;;;30.10;60.10;;;;;;5015750;28;20407;-75
2023/07/06 07:04:11;;;;;;;6.13;5.20;;;30.10;60.10;;;;;;5015642;28;20461;-75
2023/07/06 07:06:40;;;;;;;6.05;5.53;;;30.10;60.00;;;;;;5030552;28;20033;-75
2023/07/06 07:09:09;;;;;;;5.88;5.28;;;30.20;60.00;;;;;;5015543;28;20025;-75
2023/07/06 07:11:36;;;;;;;5.85;4.97;;;30.20;60.00;;;;;;5015463;28;20026;-75
2023/07/06 07:14:02;;;;;;;6.03;5.47;;;30.30;60.00;;;;;;5014595;28;20061;-75
2023/07/06 07:16:28;;;;;;;6.10;5.43;;;30.30;59.90;;;;;;5015281;28;20471;-75
2023/07/06 07:18:54;;;;;;;6.32;5.68;;;30.30;59.90;;;;;;5015005;28;20088;-75
2023/07/06 07:21:20;;;;;;;6.18;5.40;;;30.30;59.80;;;;;;5015429;28;20025;-75
2023/07/06 07:23:47;;;;;;;6.07;4.88;;;30.30;59.80;;;;;;5013824;28;20022;-74
2023/07/06 07:26:19;;;;;;;5.43;4.93;;;30.40;59.80;;;;;;5014890;28;20088;-75
2023/07/06 07:28:50;;;;;;;5.40;4.90;;;30.40;59.80;;;;;;5014634;28;20424;-76
2023/07/06 07:31:17;;;;;;;6.70;5.10;;;30.40;59.70;;;;;;5013019;28;20547;-75
2023/07/06 07:33:44;;;;;;;6.63;5.20;;;30.40;59.80;;;;;;5014290;28;20065;-75
2023/07/06 07:36:11;;;;;;;5.97;5.45;;;30.40;59.80;;;;;;5012649;28;20524;-75
2023/07/06 07:38:38;;;;;;;5.97;5.38;;;30.30;59.70;;;;;;5014302;28;20021;-75
2023/07/06 07:41:06;;;;;;;5.60;5.10;;;30.30;59.70;;;;;;5012811;28;20052;-75
2023/07/06 07:43:34;;;;;;;5.50;5.00;;;30.30;59.70;;;;;;5012910;28;20435;-74
2023/07/06 07:46:05;;;;;;;5.30;4.80;;;30.30;59.70;;;;;;5013855;28;20404;-76
2023/07/06 07:48:33;;;;;;;5.53;5.03;;;30.30;59.70;;;;;;5013229;28;20029;-75
2023/07/06 07:51:03;;;;;;;5.28;4.75;;;30.30;59.60;;;;;;5014439;28;20034;-74
2023/07/06 07:53:33;;;;;;;7.38;4.70;;;30.30;59.60;;;;;;5014816;28;20025;-75
2023/07/06 07:55:59;;;;;;;5.38;4.88;;;30.40;59.60;;;;;;5014496;28;20040;-74
2023/07/06 07:58:26;;;;;;;5.20;4.70;;;30.40;59.60;;;;;;5013853;28;20038;-75
2023/07/06 08:00:56;;;;;;;4.63;4.22;;;30.30;59.40;;;;;;5012688;28;20030;-75
2023/07/06 08:03:25;;;;;;;5.43;4.90;;;30.30;59.40;;;;;;5014842;28;20053;-74
2023/07/06 08:05:55;;;;;;;5.00;4.50;;;30.40;59.40;;;;;;5014858;28;20033;-74
2023/07/06 08:08:22;;;;;;;4.90;4.45;;;30.40;59.30;;;;;;5014724;28;20022;-74
2023/07/06 08:10:58;;;;;;;5.00;4.50;;;30.40;59.20;;;;;;5014206;28;20100;-75
2023/07/06 08:13:25;;;;;;;5.05;4.65;;;30.40;59.20;;;;;;5013096;28;20037;-74
2023/07/06 08:15:50;;;;;;;4.93;4.53;;;30.40;59.10;;;;;;5014306;28;20034;-75
2023/07/06 08:18:16;;;;;;;4.38;3.97;;;30.40;59.00;;;;;;5014215;28;20469;-75
2023/07/06 08:20:47;;;;;;;5.28;4.30;;;30.40;59.00;;;;;;5013956;28;20056;-75
2023/07/06 08:23:13;;;;;;;5.45;4.57;;;30.40;58.90;;;;;;5013694;28;20034;-75
2023/07/06 08:25:40;;;;;;;4.50;4.10;;;30.40;58.90;;;;;;5012260;28;20022;-75
2023/07/06 08:28:08;;;;;;;4.95;4.25;;;30.40;58.80;;;;;;5013570;28;20036;-75
2023/07/06 08:30:35;;;;;;;6.30;4.10;;;30.40;58.70;;;;;;5013157;28;20062;-75
2023/07/06 08:33:01;;;;;;;5.95;4.40;;;30.40;58.70;;;;;;5013150;28;20026;-74
2023/07/06 08:35:29;;;;;;;4.45;4.05;;;30.40;58.60;;;;;;5011616;28;20431;-74
2023/07/06 08:37:55;;;;;;;4.90;4.30;;;30.40;58.50;;;;;;5012799;28;20108;-74
2023/07/06 08:40:26;;;;;;;5.63;4.20;;;30.40;58.40;;;;;;5013222;28;20057;-74
2023/07/06 08:42:55;;;;;;;4.53;4.00;;;30.40;58.30;;;;;;5012968;28;20018;-76
2023/07/06 08:45:39;;;;;;;5.03;4.18;;;30.40;58.20;;;;;;5013048;28;20100;-75
2023/07/06 08:48:05;;;;;;;4.63;4.22;;;30.50;58.30;;;;;;5012839;28;20026;-75
2023/07/06 08:50:33;;;;;;;4.78;3.95;;;30.40;58.10;;;;;;5011631;28;20117;-74
2023/07/06 08:53:00;;;;;;;4.60;4.07;;;30.50;58.10;;;;;;5012966;28;20479;-74
2023/07/06 08:55:26;;;;;;;4.78;4.28;;;30.50;58.00;;;;;;5013064;28;20033;-74
2023/07/06 08:57:53;;;;;;;4.30;3.90;;;30.50;57.90;;;;;;5013390;28;20376;-75
2023/07/06 09:00:21;;;;;;;4.63;4.10;;;30.50;57.90;;;;;;5012818;28;20022;-74
2023/07/06 09:02:49;;;;;;;4.55;4.15;;;30.50;57.90;;;;;;5011426;28;20053;-74
2023/07/06 09:05:16;;;;;;;4.35;3.95;;;30.50;57.90;;;;;;5012416;28;20034;-74
2023/07/06 09:07:44;;;;;;;4.13;3.80;;;30.50;57.80;;;;;;5012992;28;20392;-74
2023/07/06 09:10:17;;;;;;;4.43;4.03;;;30.50;57.70;;;;;;5012829;28;20432;-74
2023/07/06 09:12:43;;;;;;;4.43;4.03;;;30.60;57.80;;;;;;5012765;28;20029;-75
2023/07/06 09:15:14;;;;;;;4.43;4.03;;;30.60;57.70;;;;;;5011265;28;20084;-74
2023/07/06 09:17:47;;;;;;;4.78;4.28;;;30.60;57.70;;;;;;5012438;28;20206;-74
2023/07/06 09:20:16;;;;;;;4.50;4.10;;;30.60;57.60;;;;;;5012764;28;20022;-74
2023/07/06 09:22:42;;;;;;;5.35;4.10;;;30.60;57.60;;;;;;5011287;28;20041;-74
2023/07/06 09:25:17;;;;;;;4.68;4.28;;;30.60;57.60;;;;;;5012365;28;20026;-75
2023/07/06 09:27:49;;;;;;;4.32;3.92;;;30.60;57.60;;;;;;5012661;28;20024;-75
2023/07/06 09:30:29;;;;;;;4.88;4.45;;;30.60;57.60;;;;;;5013132;28;20026;-75
2023/07/06 09:33:06;;;;;;;4.57;4.18;;;30.70;57.60;;;;;;5012323;28;20032;-74
2023/07/06 09:35:36;;;;;;;4.63;4.03;;;30.70;57.60;;;;;;5013413;28;20026;-74
2023/07/06 09:38:06;;;;;;;4.65;4.20;;;30.70;57.60;;;;;;5015290;28;20057;-74
2023/07/06 09:40:32;;;;;;;4.50;4.00;;;30.70;57.50;;;;;;5016399;28;20464;-75
2023/07/06 09:42:57;;;;;;;4.88;4.38;;;30.70;57.50;;;;;;5016610;28;20033;-74
2023/07/06 09:45:29;;;;;;;5.00;4.20;;;30.70;57.50;;;;;;5016697;28;20050;-74
2023/07/06 09:48:03;;;;;;;4.35;3.95;;;30.70;58.10;;;;;;5016634;28;20415;-73
2023/07/06 09:50:43;;;;;;;4.32;3.92;;;30.70;57.50;;;;;;5016401;28;20104;-74
2023/07/06 09:53:13;;;;;;;5.78;3.90;;;30.70;57.40;;;;;;5014828;28;20080;-75
2023/07/06 09:55:39;;;;;;;4.20;3.80;;;30.70;57.40;;;;;;5016635;28;20030;-74
2023/07/06 09:58:13;;;;;;;4.50;4.10;;;30.70;57.40;;;;;;5016521;28;20423;-74
2023/07/06 10:00:47;;;;;;;7.30;4.25;;;30.70;57.40;;;;;;5016170;28;20032;-74
2023/07/06 10:03:31;;;;;;;5.05;4.13;;;30.80;57.50;;;;;;5016237;28;20038;-75
2023/07/06 10:06:22;;;;;;;4.50;4.10;;;30.80;57.40;;;;;;5015887;28;20034;-74
2023/07/06 10:09:00;;;;;;;4.53;4.13;;;30.80;57.30;;;;;;5016188;28;20112;-74
2023/07/06 10:11:53;;;;;;;4.50;4.10;;;30.80;57.30;;;;;;5016140;28;20368;-75
2023/07/06 10:14:26;;;;;;;4.70;4.20;;;30.80;57.30;;;;;;5015901;28;20034;-75
2023/07/06 10:17:23;;;;;;;4.20;3.80;;;30.80;57.30;;;;;;5015864;28;20033;-75
2023/07/06 10:20:18;;;;;;;4.75;4.25;;;30.90;57.30;;;;;;5015639;28;20263;-75
2023/07/06 10:23:09;;;;;;;4.30;3.90;;;30.90;57.20;;;;;;5013083;28;20034;-74
2023/07/06 10:25:35;;;;;;;4.28;3.88;;;31.00;57.10;;;;;;5015903;28;20116;-75
2023/07/06 10:28:07;;;;;;;4.43;3.80;;;31.00;57.00;;;;;;5014429;28;20121;-74
2023/07/06 10:30:40;;;;;;;4.57;3.85;;;31.10;57.00;;;;;;5015572;28;20022;-75
2023/07/06 10:33:12;;;;;;;4.30;3.90;;;31.10;56.90;;;;;;5015647;28;20030;-74
2023/07/06 10:35:48;;;;;;;4.35;3.95;;;31.10;56.90;;;;;;5015727;28;20148;-74
2023/07/06 10:38:13;;;;;;;4.40;3.72;;;31.20;56.90;;;;;;5015572;28;20041;-75
2023/07/06 10:40:39;;;;;;;4.28;3.88;;;31.20;56.90;;;;;;5015230;28;20030;-74
2023/07/06 10:43:14;;;;;;;4.32;3.92;;;31.20;56.90;;;;;;5015541;28;20088;-75
2023/07/06 10:45:46;;;;;;;4.43;3.72;;;31.20;56.90;;;;;;5015267;28;20054;-75
2023/07/06 10:48:13;;;;;;;4.32;3.92;;;31.20;56.90;;;;;;5014318;28;20461;-74
2023/07/06 10:50:50;;;;;;;4.40;4.00;;;31.20;56.90;;;;;;5015057;28;20046;-74
2023/07/06 10:53:25;;;;;;;6.72;4.88;;;31.30;57.00;;;;;;5015661;28;20488;-75
2023/07/06 10:56:06;;;;;;;6.03;5.43;;;31.20;56.90;;;;;;5030450;28;20077;-75
2023/07/06 10:58:57;;;;;;;6.40;5.65;;;31.20;56.90;;;;;;5014959;28;20175;-75
2023/07/06 11:01:40;;;;;;;6.18;5.57;;;31.30;56.90;;;;;;5013937;28;20379;-75
2023/07/06 11:04:40;;;;;;;6.45;5.70;;;31.30;56.90;;;;;;5015342;28;20025;-74
2023/07/06 11:07:10;;;;;;;6.22;5.63;;;31.30;56.90;;;;;;5015121;28;20127;-75
2023/07/06 11:10:13;;;;;;;5.53;5.03;;;31.20;56.80;;;;;;5013500;28;20037;-75
2023/07/06 11:13:09;;;;;;;6.05;5.25;;;31.30;56.80;;;;;;5015194;28;20065;-75
2023/07/06 11:15:56;;;;;;;5.93;5.32;;;31.30;56.90;;;;;;5010038;28;20126;-75
2023/07/06 11:18:32;;;;;;;5.75;5.05;;;31.30;56.80;;;;;;5013149;28;20128;-75
2023/07/06 11:21:06;;;;;;;5.20;4.70;;;31.40;56.80;;;;;;5014983;28;20022;-74
2023/07/06 11:23:45;;;;;;;5.85;5.35;;;31.50;56.70;;;;;;5014738;28;20081;-75
2023/07/06 11:26:26;;;;;;;5.07;4.57;;;31.60;56.60;;;;;;5014434;28;20555;-74
2023/07/06 11:28:53;;;;;;;5.25;4.70;;;31.60;56.40;;;;;;5014604;28;20026;-75
2023/07/06 11:31:44;;;;;;;5.38;4.88;;;31.60;56.40;;;;;;5014373;28;20026;-75
2023/07/06 11:34:34;;;;;;;4.95;4.45;;;31.70;56.50;;;;;;5014878;28;20025;-75
2023/07/06 11:37:18;;;;;;;6.35;4.85;;;31.60;56.30;;;;;;5014204;28;20044;-75
2023/07/06 11:39:57;;;;;;;4.47;4.07;;;31.70;56.40;;;;;;5014975;28;20122;-75
2023/07/06 11:42:59;;;;;;;5.18;4.05;;;31.70;56.30;;;;;;5014245;28;20029;-75
2023/07/06 11:45:35;;;;;;;4.97;4.47;;;31.70;56.40;;;;;;5012890;28;20060;-74
2023/07/06 11:48:30;;;;;;;5.03;4.30;;;31.70;56.40;;;;;;5014539;28;20022;-75
2023/07/06 11:50:55;;;;;;;4.32;3.92;;;31.70;56.30;;;;;;5014569;28;20030;-74
2023/07/06 11:56:19;;;;;;;4.97;3.67;;;31.90;56.30;;;;;;5014195;28;20084;-75
2023/07/06 11:58:59;;;;;;;5.47;4.10;;;31.90;56.20;;;;;;5012718;28;20057;-75
2023/07/06 12:01:40;;;;;;;5.38;4.18;;;31.90;56.10;;;;;;5012973;28;20040;-74
2023/07/06 12:04:26;;;;;;;5.28;3.75;;;32.00;56.10;;;;;;5029004;28;20392;-74
2023/07/06 12:06:54;;;;;;;4.50;4.10;;;32.10;56.10;;;;;;5014071;28;20084;-75
2023/07/06 12:09:24;;;;;;;4.40;4.00;;;32.10;56.00;;;;;;5013952;28;20037;-76
2023/07/06 12:12:15;;;;;;;4.65;4.20;;;32.30;55.90;;;;;;5013806;28;20372;-76
2023/07/06 12:14:42;;;;;;;4.13;3.72;;;32.30;55.80;;;;;;5012355;28;20034;-75
2023/07/06 12:17:11;;;;;;;4.22;3.83;;;32.40;55.80;;;;;;5013918;28;20451;-75
2023/07/06 12:19:41;;;;;;;4.15;3.75;;;32.40;55.70;;;;;;5012334;28;20030;-75
2023/07/06 12:22:14;;;;;;;4.20;3.80;;;32.50;55.70;;;;;;5013613;28;20037;-74
2023/07/06 12:24:39;;;;;;;4.90;4.00;;;32.50;55.60;;;;;;5013482;28;20617;-74
2023/07/06 12:27:13;;;;;;;7.63;4.10;;;32.50;55.60;;;;;;5013330;28;20069;-74
2023/07/06 12:29:38;;;;;;;;;;;32.60;55.60;;;;;;5014036;28;20097;-74
2023/07/06 12:32:10;;;;;;;4.35;3.70;;;32.60;55.50;;;;;;5014058;28;19952;-74
2023/07/06 12:34:40;;;;;;;4.30;3.40;;;32.60;55.40;;;;;;5012097;28;20032;-74
2023/07/06 12:37:11;;;;;;;4.20;3.80;;;32.60;55.30;;;;;;5013383;28;20034;-75
2023/07/06 12:39:44;;;;;;;4.32;3.92;;;32.70;55.30;;;;;;5013412;28;20034;-75
2023/07/06 12:42:15;;;;;;;5.57;3.90;;;32.70;55.20;;;;;;5012103;28;20030;-75
2023/07/06 12:44:43;;;;;;;4.03;3.58;;;32.80;55.20;;;;;;5013682;28;20034;-74
2023/07/06 12:47:37;;;;;;;4.05;3.65;;;32.80;55.10;;;;;;5013348;28;20491;-74
2023/07/06 12:50:09;;;;;;;4.68;3.80;;;32.80;54.90;;;;;;5011972;28;20112;-75
2023/07/06 12:52:36;;;;;;;4.05;3.65;;;32.80;54.90;;;;;;5013438;28;20029;-75
2023/07/06 12:55:03;;;;;;;4.88;3.97;;;32.70;54.70;;;;;;5012130;28;20392;-75
2023/07/06 12:57:35;;;;;;;4.53;3.70;;;32.70;54.60;;;;;;5013253;28;20042;-74
2023/07/06 13:00:23;;;;;;;4.00;3.63;;;32.70;54.60;;;;;;5013479;28;20457;-74
2023/07/06 13:02:56;;;;;;;4.00;3.60;;;32.70;54.40;;;;;;5013095;28;20047;-75
2023/07/06 13:05:27;;;;;;;3.67;3.38;;;32.70;54.40;;;;;;5013050;28;20133;-75
2023/07/06 13:07:53;;;;;;;4.15;3.75;;;32.70;54.40;;;;;;5012946;28;20052;-74